Time;durP1;ratioP1;P1;durP2;ratioP2;P2;SDS_P1;SDS_P2;PMS_P1;PMS_P2;Temp;Humidity;BMP_temperature;BMP_pressure;BME280_temperature;BME280_humidity;BME280_pressure;Samples;Min_cycle;Max_cycle;Signal;HPM_P1;HPM_P2
2022/09/21 00:02:13;;;;;;;15.35;8.82;;;7.30;37.90;;;;;;7397183;19;20007;-65
2022/09/21 00:04:43;;;;;;;15.32;9.10;;;7.30;38.00;;;;;;7372424;19;20031;-65
2022/09/21 00:07:16;;;;;;;18.23;9.40;;;7.40;38.30;;;;;;7370779;19;20033;-65
2022/09/21 00:09:45;;;;;;;17.95;9.13;;;7.40;38.20;;;;;;7372793;19;20010;-65
2022/09/21 00:12:15;;;;;;;16.55;9.18;;;7.30;37.80;;;;;;7374351;19;20102;-65
2022/09/21 00:14:45;;;;;;;12.98;8.43;;;7.30;37.90;;;;;;7372871;19;20019;-66
2022/09/21 00:17:15;;;;;;;15.13;8.70;;;7.30;38.10;;;;;;7379455;19;20011;-66
2022/09/21 00:19:45;;;;;;;15.63;8.30;;;7.30;38.20;;;;;;7395155;19;20027;-66
2022/09/21 00:22:17;;;;;;;17.20;8.30;;;7.30;38.30;;;;;;7373835;19;20014;-66
2022/09/21 00:24:47;;;;;;;15.00;8.07;;;7.30;37.50;;;;;;7371489;19;20705;-65
2022/09/21 00:27:17;;;;;;;14.80;8.25;;;7.20;37.60;;;;;;7371953;19;20021;-65
2022/09/21 00:29:47;;;;;;;12.00;8.70;;;7.20;38.10;;;;;;7372438;19;20010;-65
2022/09/21 00:32:17;;;;;;;11.80;8.30;;;7.10;37.70;;;;;;7373737;19;20470;-66
2022/09/21 00:34:47;;;;;;;12.45;8.23;;;7.00;37.20;;;;;;7393413;19;20360;-65
2022/09/21 00:37:19;;;;;;;14.02;8.30;;;7.00;37.60;;;;;;7369423;19;20025;-65
2022/09/21 00:39:49;;;;;;;11.70;8.20;;;6.90;37.60;;;;;;7371681;19;20007;-65
2022/09/21 00:42:21;;;;;;;16.58;8.85;;;6.90;38.00;;;;;;7373956;19;20435;-65
2022/09/21 00:44:51;;;;;;;15.95;9.13;;;6.90;38.50;;;;;;7369932;19;20014;-65
2022/09/21 00:47:24;;;;;;;13.30;8.35;;;6.90;38.90;;;;;;7370203;19;20015;-65
2022/09/21 00:49:57;;;;;;;15.35;9.95;;;6.90;39.40;;;;;;7394425;19;20022;-65
2022/09/21 00:52:33;;;;;;;19.88;9.18;;;6.90;39.60;;;;;;7372618;19;20018;-65
2022/09/21 00:55:07;;;;;;;12.82;9.07;;;6.90;39.70;;;;;;7370830;19;20088;-65
2022/09/21 00:57:38;;;;;;;13.50;9.48;;;6.90;39.70;;;;;;7369643;19;20493;-65
2022/09/21 01:00:10;;;;;;;11.77;8.80;;;6.90;39.60;;;;;;7371511;19;20484;-66
2022/09/21 01:02:40;;;;;;;15.20;9.73;;;6.90;39.60;;;;;;7372694;19;20006;-65
2022/09/21 01:05:11;;;;;;;15.73;9.32;;;6.90;39.70;;;;;;7389827;19;20011;-65
2022/09/21 01:07:46;;;;;;;14.77;9.73;;;6.90;39.70;;;;;;7369863;19;20355;-65
2022/09/21 01:10:19;;;;;;;15.38;9.60;;;7.00;39.70;;;;;;7371138;19;20026;-65
2022/09/21 01:13:04;;;;;;;17.33;9.02;;;7.00;39.70;;;;;;7371335;19;20011;-65
2022/09/21 01:15:43;;;;;;;19.27;9.55;;;7.00;39.70;;;;;;7369584;19;20011;-65
2022/09/21 01:18:19;;;;;;;14.38;9.50;;;7.00;39.70;;;;;;7370245;19;20014;-65
2022/09/21 01:21:18;;;;;;;15.38;9.90;;;6.90;39.20;;;;;;7370493;19;20038;-65
2022/09/21 01:24:20;;;;;;;15.27;9.40;;;6.70;39.40;;;;;;7371413;19;20018;-66
2022/09/21 01:27:14;;;;;;;12.30;9.40;;;6.60;39.30;;;;;;7369353;19;20010;-65
2022/09/21 01:29:51;;;;;;;15.15;9.45;;;6.50;39.30;;;;;;7370750;19;20014;-65
2022/09/21 01:32:25;;;;;;;14.52;9.27;;;6.40;39.20;;;;;;7372158;19;20096;-65
2022/09/21 01:35:00;;;;;;;12.43;9.18;;;6.50;39.50;;;;;;7391666;19;20019;-64
2022/09/21 01:37:33;;;;;;;;;;;6.50;39.30;;;;;;7368555;19;20756;-65
2022/09/21 01:40:07;;;;;;;15.13;9.90;;;6.50;40.10;;;;;;7369693;19;19911;-64
2022/09/21 01:42:39;;;;;;;16.00;9.68;;;6.40;40.20;;;;;;7371012;19;20014;-65
2022/09/21 01:45:15;;;;;;;19.13;9.48;;;6.40;40.70;;;;;;7369650;19;20506;-64
2022/09/21 01:47:48;;;;;;;15.43;10.10;;;6.40;41.00;;;;;;7367803;19;20497;-64
2022/09/21 01:50:20;;;;;;;13.25;9.15;;;6.40;40.70;;;;;;7370455;19;20015;-64
2022/09/21 01:52:54;;;;;;;15.82;10.27;;;6.40;41.30;;;;;;7392067;19;20021;-65
2022/09/21 01:55:28;;;;;;;18.17;9.93;;;6.50;41.40;;;;;;7368714;19;20158;-65
2022/09/21 01:58:03;;;;;;;17.80;9.75;;;6.50;41.30;;;;;;7366080;19;20010;-65
2022/09/21 02:00:36;;;;;;;;;;;6.40;40.90;;;;;;7368707;19;20485;-65
2022/09/21 02:03:14;;;;;;;14.85;10.27;;;6.40;41.10;;;;;;7370069;19;19917;-65
2022/09/21 02:05:44;;;;;;;15.25;10.00;;;6.50;41.40;;;;;;7367620;19;20017;-65
2022/09/21 02:08:14;;;;;;;15.27;9.82;;;6.60;41.50;;;;;;7391795;19;20495;-65
2022/09/21 02:10:48;;;;;;;12.52;9.70;;;6.60;41.30;;;;;;7370101;19;20312;-65
2022/09/21 02:13:20;;;;;;;16.27;9.55;;;6.60;41.10;;;;;;7369453;19;20494;-65
2022/09/21 02:16:04;;;;;;;14.77;10.32;;;6.60;41.00;;;;;;7366209;19;20494;-66
2022/09/21 02:18:44;;;;;;;14.63;10.15;;;6.60;40.90;;;;;;7368617;19;20090;-65
2022/09/21 02:21:23;;;;;;;16.15;9.73;;;6.70;41.50;;;;;;7367744;19;20013;-65
2022/09/21 02:24:04;;;;;;;20.70;9.90;;;6.70;41.20;;;;;;7371025;19;20023;-65
2022/09/21 02:26:41;;;;;;;21.40;9.93;;;6.70;41.10;;;;;;7367856;19;20019;-65
2022/09/21 02:29:19;;;;;;;13.43;10.02;;;6.70;41.00;;;;;;7391825;19;20038;-65
2022/09/21 02:31:56;;;;;;;17.20;10.55;;;6.60;40.50;;;;;;7369768;19;20546;-65
2022/09/21 02:34:33;;;;;;;13.88;9.60;;;6.60;40.00;;;;;;7367889;19;20152;-65
2022/09/21 02:37:09;;;;;;;20.13;9.70;;;6.50;39.50;;;;;;7365211;19;20374;-64
2022/09/21 02:39:49;;;;;;;16.95;9.63;;;6.50;40.70;;;;;;7367466;19;20105;-64
2022/09/21 02:42:25;;;;;;;14.85;9.82;;;6.40;40.80;;;;;;7369985;19;20007;-64
2022/09/21 02:45:00;;;;;;;15.68;9.63;;;6.40;41.90;;;;;;7366940;19;20025;-64
2022/09/21 02:47:35;;;;;;;;;;;6.50;41.40;;;;;;7367063;19;20026;-65
2022/09/21 02:50:09;;;;;;;16.77;9.73;;;6.40;40.80;;;;;;7390099;19;19914;-64
2022/09/21 02:52:42;;;;;;;17.15;9.98;;;6.50;41.50;;;;;;7368380;19;20014;-65
2022/09/21 02:55:14;;;;;;;14.85;9.82;;;6.50;41.40;;;;;;7366861;19;20474;-65
2022/09/21 02:57:45;;;;;;;16.13;10.25;;;6.40;40.90;;;;;;7366657;19;20053;-65
2022/09/21 03:00:17;;;;;;;14.48;10.40;;;6.40;40.90;;;;;;7366372;19;20010;-65
2022/09/21 03:02:49;;;;;;;27.25;10.63;;;6.40;41.10;;;;;;7369257;19;20010;-65
2022/09/21 03:05:19;;;;;;;14.63;10.10;;;6.30;40.90;;;;;;7366445;19;20018;-66
2022/09/21 03:07:49;;;;;;;15.50;9.88;;;6.20;40.90;;;;;;7387361;19;20367;-65
2022/09/21 03:10:19;;;;;;;14.23;10.23;;;6.20;41.40;;;;;;7366960;19;20033;-65
2022/09/21 03:12:48;;;;;;;16.00;9.98;;;6.20;41.70;;;;;;7368626;19;20014;-65
2022/09/21 03:15:19;;;;;;;13.40;9.30;;;6.10;41.70;;;;;;7365415;19;20014;-65
2022/09/21 03:17:51;;;;;;;11.45;9.40;;;6.00;41.60;;;;;;7366787;19;20505;-65
2022/09/21 03:20:21;;;;;;;15.60;9.52;;;5.90;41.10;;;;;;7366522;19;20010;-65
2022/09/21 03:22:50;;;;;;;16.48;10.02;;;5.80;41.40;;;;;;7390222;19;20046;-65
2022/09/21 03:25:21;;;;;;;14.77;9.68;;;5.70;41.70;;;;;;7365290;19;20034;-64
2022/09/21 03:27:52;;;;;;;12.77;9.65;;;5.60;42.10;;;;;;7366723;19;20485;-64
2022/09/21 03:30:22;;;;;;;16.08;10.13;;;5.60;42.50;;;;;;7367366;19;20017;-65
2022/09/21 03:32:55;;;;;;;13.88;10.00;;;5.60;43.00;;;;;;7367697;19;20490;-64
2022/09/21 03:35:26;;;;;;;13.48;10.13;;;5.60;43.50;;;;;;7366411;19;20014;-64
2022/09/21 03:37:56;;;;;;;14.50;10.80;;;5.50;43.50;;;;;;7386862;19;20011;-64
2022/09/21 03:40:26;;;;;;;14.75;11.25;;;5.40;43.60;;;;;;7365035;19;20007;-64
2022/09/21 03:42:57;;;;;;;15.27;10.15;;;5.40;43.90;;;;;;7367532;19;20011;-64
2022/09/21 03:45:26;;;;;;;16.42;11.20;;;5.40;44.40;;;;;;7366006;19;20466;-64
2022/09/21 03:48:01;;;;;;;15.13;10.55;;;5.40;44.70;;;;;;7364548;19;20011;-65
2022/09/21 03:50:31;;;;;;;16.67;11.23;;;5.40;45.10;;;;;;7367092;19;20002;-65
2022/09/21 03:53:01;;;;;;;14.95;11.15;;;5.30;45.30;;;;;;7387164;19;20006;-65
2022/09/21 03:55:31;;;;;;;16.80;11.63;;;5.30;45.50;;;;;;7364456;19;20009;-65
2022/09/21 03:58:01;;;;;;;15.52;10.85;;;5.30;46.00;;;;;;7364510;19;20015;-65
2022/09/21 04:00:31;;;;;;;14.73;10.50;;;5.20;45.80;;;;;;7365835;19;20482;-65
2022/09/21 04:03:04;;;;;;;15.98;10.88;;;5.30;46.50;;;;;;7366455;19;20564;-65
2022/09/21 04:05:34;;;;;;;18.25;11.82;;;5.30;46.60;;;;;;7364690;19;20010;-65
2022/09/21 04:08:04;;;;;;;18.48;12.25;;;5.30;46.60;;;;;;7386281;19;20470;-64
2022/09/21 04:10:34;;;;;;;18.55;12.48;;;5.40;47.00;;;;;;7366002;19;20373;-65
2022/09/21 04:13:05;;;;;;;20.05;12.93;;;5.50;47.30;;;;;;7366465;19;20182;-65
2022/09/21 04:15:35;;;;;;;21.83;12.35;;;5.60;47.20;;;;;;7364193;19;20366;-65
2022/09/21 04:18:08;;;;;;;21.77;12.63;;;5.60;47.40;;;;;;7365269;19;20033;-64
2022/09/21 04:20:38;;;;;;;22.48;12.70;;;5.70;47.60;;;;;;7367467;19;20054;-65
2022/09/21 04:23:08;;;;;;;23.90;12.80;;;5.80;47.80;;;;;;7396166;19;20052;-64
2022/09/21 04:25:37;;;;;;;18.00;12.70;;;5.80;47.80;;;;;;7371202;19;20586;-65
2022/09/21 04:28:07;;;;;;;18.88;12.98;;;5.80;47.70;;;;;;7371634;19;20055;-65
2022/09/21 04:30:37;;;;;;;17.48;12.10;;;5.80;47.50;;;;;;7372615;19;20014;-65
2022/09/21 04:33:09;;;;;;;17.75;11.93;;;5.80;47.10;;;;;;7372763;19;20010;-66
2022/09/21 04:35:39;;;;;;;15.82;11.02;;;5.70;47.00;;;;;;7370700;19;20010;-64
2022/09/21 04:38:09;;;;;;;20.98;12.68;;;5.80;47.10;;;;;;7394089;19;20095;-65
2022/09/21 04:40:39;;;;;;;19.15;12.63;;;5.80;47.00;;;;;;7371938;19;20021;-64
2022/09/21 04:43:09;;;;;;;16.77;11.88;;;5.80;47.00;;;;;;7372906;19;20017;-64
2022/09/21 04:45:39;;;;;;;23.00;12.13;;;5.80;47.00;;;;;;7371148;19;20017;-64
2022/09/21 04:48:11;;;;;;;20.00;12.65;;;5.70;46.90;;;;;;7372038;19;20034;-65
2022/09/21 04:50:41;;;;;;;20.10;12.38;;;5.80;47.00;;;;;;7369192;19;20015;-65
2022/09/21 04:53:11;;;;;;;17.80;12.45;;;5.80;46.90;;;;;;7394067;19;20014;-64
2022/09/21 04:55:40;;;;;;;19.58;13.38;;;5.80;46.90;;;;;;7370848;19;20007;-64
2022/09/21 04:58:10;;;;;;;22.67;14.75;;;5.80;46.90;;;;;;7370833;19;20034;-64
2022/09/21 05:00:40;;;;;;;20.70;14.25;;;5.80;46.90;;;;;;7371842;19;20007;-64
2022/09/21 05:03:12;;;;;;;23.60;13.50;;;5.90;47.00;;;;;;7372512;19;20025;-65
2022/09/21 05:05:48;;;;;;;20.48;13.65;;;5.90;47.00;;;;;;7369991;19;20023;-64
2022/09/21 05:10:01;;;;;;;22.08;13.93;;;5.90;47.00;;;;;;7371546;19;20018;-65
2022/09/21 05:11:05;;;;;;;19.90;13.18;;;5.90;47.00;;;;;;7393145;19;20018;-65
2022/09/21 05:13:35;;;;;;;26.15;13.35;;;5.90;47.00;;;;;;7370739;19;20018;-65
2022/09/21 05:16:05;;;;;;;20.70;13.95;;;6.00;47.00;;;;;;7368096;19;20533;-64
2022/09/21 05:18:38;;;;;;;17.42;12.18;;;6.00;46.80;;;;;;7370864;19;20014;-64
2022/09/21 05:21:08;;;;;;;24.90;13.95;;;6.00;46.40;;;;;;7370506;19;20387;-65
2022/09/21 05:23:37;;;;;;;19.08;12.75;;;6.00;46.10;;;;;;7371118;19;20582;-66
2022/09/21 05:26:07;;;;;;;21.90;12.85;;;6.00;45.70;;;;;;7390559;19;20463;-64
2022/09/21 05:28:38;;;;;;;19.48;12.57;;;6.00;45.40;;;;;;7369022;19;20007;-65
2022/09/21 05:31:24;;;;;;;17.38;12.55;;;6.00;44.80;;;;;;7370042;19;20428;-65
2022/09/21 05:34:04;;;;;;;22.95;13.35;;;6.10;44.50;;;;;;7368920;19;20014;-65
2022/09/21 05:36:47;;;;;;;20.05;13.90;;;6.10;44.40;;;;;;7368373;19;20022;-65
2022/09/21 05:39:17;;;;;;;22.02;13.15;;;6.20;43.90;;;;;;7369117;19;20026;-65
2022/09/21 05:41:48;;;;;;;27.52;15.10;;;6.30;43.80;;;;;;7368831;19;20007;-65
2022/09/21 05:44:20;;;;;;;19.05;13.43;;;6.40;43.30;;;;;;7369421;19;20011;-65
2022/09/21 05:46:55;;;;;;;19.73;13.85;;;6.50;43.30;;;;;;7387817;19;20010;-65
2022/09/21 05:49:38;;;;;;;17.33;12.15;;;6.50;42.40;;;;;;7368961;19;20018;-64
2022/09/21 05:52:16;;;;;;;22.08;12.05;;;6.60;41.50;;;;;;7368661;19;20006;-65
2022/09/21 05:55:00;;;;;;;19.35;12.50;;;6.60;40.10;;;;;;7369541;19;20006;-65
2022/09/21 05:57:40;;;;;;;21.48;12.18;;;6.80;39.60;;;;;;7367642;19;20374;-65
2022/09/21 06:00:18;;;;;;;16.50;10.73;;;6.90;39.50;;;;;;7369075;19;20011;-67
2022/09/21 06:03:06;;;;;;;15.35;10.43;;;6.90;38.10;;;;;;7370597;19;20014;-66
2022/09/21 06:05:38;;;;;;;17.10;10.30;;;6.80;35.00;;;;;;7365867;19;20494;-67
2022/09/21 06:08:08;;;;;;;16.13;10.57;;;6.70;33.60;;;;;;7390953;19;20380;-65
2022/09/21 06:10:38;;;;;;;15.70;9.82;;;6.60;33.10;;;;;;7367305;19;20014;-66
2022/09/21 06:13:08;;;;;;;13.57;10.05;;;6.70;34.10;;;;;;7368648;19;20014;-65
2022/09/21 06:15:39;;;;;;;12.95;9.35;;;6.80;33.50;;;;;;7366365;19;20021;-65
2022/09/21 06:18:09;;;;;;;11.77;9.07;;;6.90;32.00;;;;;;7369632;19;20030;-64
2022/09/21 06:20:48;;;;;;;15.05;9.50;;;6.90;31.70;;;;;;7367596;19;20138;-65
2022/09/21 06:23:18;;;;;;;16.95;9.05;;;7.00;31.20;;;;;;7369062;19;20018;-64
2022/09/21 06:25:53;;;;;;;13.05;9.45;;;7.00;31.20;;;;;;7386693;19;20021;-65
2022/09/21 06:28:28;;;;;;;12.90;8.38;;;7.00;29.80;;;;;;7366834;19;20377;-67
2022/09/21 06:30:59;;;;;;;14.15;8.75;;;7.20;30.70;;;;;;7367858;19;20014;-64
2022/09/21 06:33:29;;;;;;;14.75;9.00;;;7.30;30.00;;;;;;7368389;19;20014;-65
2022/09/21 06:36:02;;;;;;;17.75;9.05;;;7.30;28.10;;;;;;7366736;19;20039;-65
2022/09/21 06:38:34;;;;;;;11.68;8.65;;;7.40;27.90;;;;;;7367166;19;20007;-65
2022/09/21 06:41:05;;;;;;;14.98;8.75;;;7.50;27.50;;;;;;7389383;19;20556;-65
2022/09/21 06:43:35;;;;;;;11.68;8.32;;;7.70;27.70;;;;;;7367341;19;20030;-65
2022/09/21 06:46:05;;;;;;;11.57;8.30;;;7.70;26.60;;;;;;7365662;19;20019;-66
2022/09/21 06:48:36;;;;;;;11.10;8.05;;;7.80;25.60;;;;;;7367308;19;20014;-65
2022/09/21 06:51:09;;;;;;;14.25;8.82;;;8.00;25.50;;;;;;7367588;19;20037;-65
2022/09/21 06:53:39;;;;;;;14.43;7.80;;;8.00;25.00;;;;;;7367654;19;20019;-65
2022/09/21 06:56:11;;;;;;;10.23;7.95;;;8.30;25.50;;;;;;7388800;19;20018;-65
2022/09/21 06:58:41;;;;;;;13.50;7.45;;;8.40;23.50;;;;;;7368153;19;20010;-65
2022/09/21 07:01:13;;;;;;;13.02;7.80;;;8.50;22.10;;;;;;7367203;19;20014;-65
2022/09/21 07:03:44;;;;;;;15.32;8.55;;;8.50;21.80;;;;;;7367007;19;20078;-65
2022/09/21 07:06:17;;;;;;;14.18;8.50;;;8.70;21.90;;;;;;7367565;19;20006;-65
2022/09/21 07:08:47;;;;;;;12.60;8.90;;;8.70;21.00;;;;;;7366547;19;20482;-65
2022/09/21 07:11:40;;;;;;;13.25;8.75;;;8.90;20.70;;;;;;7365936;19;20016;-65
2022/09/21 07:14:10;;;;;;;14.35;9.43;;;9.00;20.00;;;;;;7387603;19;20696;-65
2022/09/21 07:16:40;;;;;;;12.68;8.43;;;9.20;18.60;;;;;;7364564;19;20024;-66
2022/09/21 07:19:09;;;;;;;12.57;8.60;;;9.30;18.00;;;;;;7365300;19;20022;-65
2022/09/21 07:21:43;;;;;;;15.73;8.77;;;9.30;17.00;;;;;;7365475;19;20034;-65
2022/09/21 07:24:13;;;;;;;12.48;8.63;;;9.30;16.20;;;;;;7365761;19;20034;-65
2022/09/21 07:26:43;;;;;;;11.70;8.75;;;9.40;16.30;;;;;;7365586;19;20017;-65
2022/09/21 07:29:13;;;;;;;13.30;9.23;;;9.60;15.60;;;;;;7388296;19;20042;-65
2022/09/21 07:31:46;;;;;;;13.88;8.68;;;9.80;14.30;;;;;;7339374;19;20014;-65
2022/09/21 07:34:17;;;;;;;11.75;7.72;;;9.70;12.20;;;;;;7337148;19;20011;-63
2022/09/21 07:36:49;;;;;;;12.27;8.07;;;9.80;12.10;;;;;;7362388;19;20474;-63
2022/09/21 07:39:19;;;;;;;14.93;8.13;;;9.80;11.90;;;;;;7362039;19;20007;-63
2022/09/21 07:41:48;;;;;;;14.18;7.68;;;9.90;11.10;;;;;;7353524;19;20011;-64
2022/09/21 07:44:19;;;;;;;15.50;8.82;;;10.10;11.30;;;;;;7357041;19;20051;-65
2022/09/21 07:46:50;;;;;;;11.82;8.40;;;10.20;10.10;;;;;;7384212;19;20510;-62
2022/09/21 07:49:20;;;;;;;13.02;8.45;;;10.30;9.00;;;;;;7363347;19;20022;-62
2022/09/21 07:51:53;;;;;;;15.43;9.25;;;10.40;8.10;;;;;;7362560;19;20007;-63
2022/09/21 07:54:22;;;;;;;20.75;12.65;;;10.50;7.50;;;;;;7356627;19;20485;-63
2022/09/21 07:59:35;;;;;;;15.27;9.20;;;10.60;5.40;;;;;;7369092;19;20022;-64
2022/09/21 08:02:04;;;;;;;14.63;8.43;;;10.70;4.10;;;;;;7390349;19;20021;-63
2022/09/21 08:04:34;;;;;;;12.00;8.10;;;10.70;3.80;;;;;;7362400;19;20087;-63
2022/09/21 08:07:07;;;;;;;13.80;8.20;;;10.80;3.10;;;;;;7363777;19;20010;-64
2022/09/21 08:09:37;;;;;;;10.25;7.25;;;10.90;3.10;;;;;;7369275;19;20007;-64
2022/09/21 08:12:07;;;;;;;13.20;7.75;;;11.00;1.70;;;;;;7367857;19;20006;-64
2022/09/21 08:14:37;;;;;;;13.02;7.50;;;10.90;1.00;;;;;;7362100;19;20007;-64
2022/09/21 08:17:07;;;;;;;13.73;6.82;;;11.10;1.10;;;;;;7388155;19;20074;-63
2022/09/21 08:19:37;;;;;;;11.05;7.03;;;11.30;1.00;;;;;;7368214;19;20046;-64
2022/09/21 08:22:11;;;;;;;11.43;7.25;;;11.50;1.00;;;;;;7366843;19;20018;-63
2022/09/21 08:24:43;;;;;;;11.20;7.68;;;11.60;1.00;;;;;;7362330;19;20007;-63
2022/09/21 08:27:13;;;;;;;9.40;6.03;;;11.80;1.00;;;;;;7366328;19;20010;-64
2022/09/21 08:29:42;;;;;;;10.40;5.80;;;11.80;1.00;;;;;;7367333;19;20002;-63
2022/09/21 08:32:12;;;;;;;9.13;5.68;;;11.70;1.00;;;;;;7390235;19;20022;-64
2022/09/21 08:35:02;;;;;;;7.10;5.68;;;11.60;1.00;;;;;;7357600;19;20010;-64
2022/09/21 08:37:35;;;;;;;8.98;4.85;;;11.70;1.00;;;;;;7364215;19;20010;-63
2022/09/21 08:40:06;;;;;;;8.77;5.15;;;11.90;1.00;;;;;;7367513;19;20038;-63
2022/09/21 08:42:43;;;;;;;9.05;5.28;;;12.00;1.00;;;;;;7366977;19;20034;-63
2022/09/21 08:45:21;;;;;;;7.28;4.13;;;12.20;1.00;;;;;;7363330;19;20516;-63
2022/09/21 08:47:53;;;;;;;6.35;4.30;;;12.20;1.00;;;;;;7364503;19;20010;-64
2022/09/21 08:50:33;;;;;;;9.27;4.60;;;12.20;1.00;;;;;;7367282;19;20040;-64
2022/09/21 08:53:09;;;;;;;6.93;4.88;;;12.10;1.00;;;;;;7385416;19;20717;-64
2022/09/21 08:55:39;;;;;;;9.75;4.55;;;12.20;1.00;;;;;;7366169;19;20018;-64
2022/09/21 08:58:21;;;;;;;7.03;4.32;;;12.40;1.00;;;;;;7365782;19;20018;-64
2022/09/21 09:01:06;;;;;;;8.35;5.28;;;12.60;1.00;;;;;;7367966;19;20395;-64
2022/09/21 09:03:50;;;;;;;7.40;3.83;;;12.60;1.00;;;;;;7362054;19;20309;-65
2022/09/21 09:06:33;;;;;;;6.47;4.47;;;12.70;1.00;;;;;;7365970;19;20816;-63
2022/09/21 09:09:36;;;;;;;8.32;3.90;;;12.70;1.00;;;;;;7368775;19;20501;-63
2022/09/21 09:12:22;;;;;;;5.18;3.97;;;12.90;1.00;;;;;;7365643;19;20014;-63
2022/09/21 09:15:30;;;;;;;7.82;3.80;;;12.90;1.00;;;;;;7360206;19;20026;-63
2022/09/21 09:18:09;;;;;;;6.75;3.22;;;13.00;1.00;;;;;;7363555;19;20013;-64
2022/09/21 09:20:42;;;;;;;5.85;3.08;;;13.20;1.00;;;;;;7366197;19;20018;-64
2022/09/21 09:23:18;;;;;;;5.28;3.08;;;13.10;1.00;;;;;;7382359;19;20616;-65
2022/09/21 09:25:53;;;;;;;6.40;3.38;;;13.20;1.00;;;;;;7366690;19;20458;-63
2022/09/21 09:28:30;;;;;;;4.80;2.83;;;13.30;1.00;;;;;;7365497;19;20018;-66
2022/09/21 09:31:03;;;;;;;6.68;3.50;;;13.40;1.00;;;;;;7364543;19;20025;-66
2022/09/21 09:33:48;;;;;;;5.70;3.00;;;13.40;1.00;;;;;;7361901;19;20030;-66
2022/09/21 09:36:18;;;;;;;8.88;3.03;;;13.40;1.00;;;;;;7366208;19;20014;-66
2022/09/21 09:39:14;;;;;;;5.80;2.38;;;13.50;1.00;;;;;;7367174;19;20021;-66
2022/09/21 09:42:03;;;;;;;3.15;2.63;;;13.50;1.00;;;;;;7366918;19;20081;-66
2022/09/21 09:45:02;;;;;;;4.93;2.50;;;13.70;1.00;;;;;;7357174;19;20115;-66
2022/09/21 09:47:43;;;;;;;3.45;2.03;;;13.70;1.00;;;;;;7363247;19;20007;-66
2022/09/21 09:50:18;;;;;;;2.95;2.10;;;13.60;1.00;;;;;;7386698;19;20051;-65
2022/09/21 09:52:49;;;;;;;8.07;2.58;;;13.80;1.00;;;;;;7366778;19;20090;-66
2022/09/21 09:55:23;;;;;;;4.03;1.90;;;13.80;1.00;;;;;;7361279;19;20010;-66
2022/09/21 09:57:57;;;;;;;3.72;1.73;;;13.90;1.00;;;;;;7365527;19;20021;-66
2022/09/21 10:00:27;;;;;;;3.83;1.77;;;14.00;1.00;;;;;;7365489;19;20058;-66
2022/09/21 10:02:59;;;;;;;3.15;1.60;;;14.20;1.00;;;;;;7364903;19;20015;-67
2022/09/21 10:05:37;;;;;;;4.05;1.58;;;14.40;1.00;;;;;;7362562;19;20014;-66
2022/09/21 10:08:06;;;;;;;4.15;1.55;;;14.20;1.00;;;;;;7386963;19;20375;-65
2022/09/21 10:10:38;;;;;;;2.78;1.80;;;14.20;1.00;;;;;;7361631;19;20038;-67
2022/09/21 10:13:27;;;;;;;4.93;1.80;;;14.00;1.00;;;;;;7358945;19;20011;-67
2022/09/21 10:16:00;;;;;;;4.55;2.08;;;14.10;1.00;;;;;;7362335;19;20022;-66
2022/09/21 10:18:37;;;;;;;4.63;2.30;;;14.40;1.00;;;;;;7359675;19;20014;-68
2022/09/21 10:21:10;;;;;;;4.35;2.15;;;14.50;1.00;;;;;;7363081;19;20497;-66
2022/09/21 10:23:40;;;;;;;2.78;1.88;;;14.60;1.00;;;;;;7354280;19;20017;-67
2022/09/21 10:26:14;;;;;;;3.92;2.05;;;15.10;1.00;;;;;;7384334;19;20018;-66
2022/09/21 10:29:00;;;;;;;4.00;2.00;;;15.50;1.00;;;;;;7365501;19;20463;-66
2022/09/21 10:31:31;;;;;;;1.60;1.40;;;15.90;1.00;;;;;;7363117;19;20006;-66
2022/09/21 10:34:13;;;;;;;2.40;1.40;;;15.10;1.00;;;;;;7353721;19;20446;-66
2022/09/21 10:36:50;;;;;;;3.15;1.75;;;15.00;1.00;;;;;;7363322;19;20049;-66
2022/09/21 10:39:26;;;;;;;5.78;4.35;;;15.00;1.00;;;;;;7362809;19;19998;-67
2022/09/21 10:42:05;;;;;;;3.83;2.17;;;15.20;1.00;;;;;;7364052;19;20011;-65
2022/09/21 10:44:41;;;;;;;2.58;1.25;;;15.70;1.00;;;;;;7351510;19;20037;-66
2022/09/21 10:47:20;;;;;;;3.45;1.83;;;15.60;1.00;;;;;;7383706;19;20026;-66
2022/09/21 10:49:53;;;;;;;4.00;1.75;;;15.60;1.00;;;;;;7360953;19;20022;-66
2022/09/21 10:52:26;;;;;;;2.55;1.80;;;15.40;1.00;;;;;;7364932;19;20053;-65
2022/09/21 10:54:57;;;;;;;6.45;1.95;;;15.30;1.00;;;;;;7353284;19;20029;-66
2022/09/21 10:57:31;;;;;;;5.43;1.80;;;15.40;1.00;;;;;;7362319;19;20006;-67
2022/09/21 11:00:30;;;;;;;3.53;1.80;;;15.30;1.00;;;;;;7364713;19;20083;-66
2022/09/21 11:03:02;;;;;;;2.72;1.58;;;15.00;1.00;;;;;;7361388;19;20006;-66
2022/09/21 11:05:36;;;;;;;1.88;1.25;;;14.90;1.00;;;;;;7346311;19;20737;-67
2022/09/21 11:08:13;;;;;;;3.35;1.20;;;14.90;1.00;;;;;;7378672;19;20359;-66
2022/09/21 11:10:52;;;;;;;2.88;1.52;;;14.80;1.00;;;;;;7364356;19;20006;-66
2022/09/21 11:13:31;;;;;;;3.55;1.20;;;15.10;1.00;;;;;;7362106;19;20451;-66
2022/09/21 11:16:12;;;;;;;3.35;1.10;;;15.10;1.00;;;;;;7358916;19;20022;-66
2022/09/21 11:18:53;;;;;;;2.78;1.15;;;14.90;1.00;;;;;;7362766;19;20466;-67
2022/09/21 11:21:33;;;;;;;2.10;1.10;;;14.90;1.00;;;;;;7364574;19;20584;-66
2022/09/21 11:24:12;;;;;;;2.47;0.95;;;15.10;1.00;;;;;;7359540;19;20014;-67
2022/09/21 11:26:47;;;;;;;2.40;0.73;;;15.20;1.00;;;;;;7357537;19;20026;-66
2022/09/21 11:29:23;;;;;;;1.40;0.70;;;15.10;1.00;;;;;;7384755;19;20022;-70
2022/09/21 11:32:18;;;;;;;2.97;0.70;;;15.40;1.00;;;;;;7392961;19;20052;-66
2022/09/21 11:35:12;;;;;;;1.25;0.73;;;15.40;1.00;;;;;;7368154;19;20010;-66
2022/09/21 11:37:52;;;;;;;1.25;0.60;;;15.50;1.00;;;;;;7362925;19;20018;-67
2022/09/21 11:40:33;;;;;;;1.73;0.65;;;15.40;1.00;;;;;;7369296;19;20006;-65
2022/09/21 11:43:20;;;;;;;1.45;0.70;;;15.10;1.00;;;;;;7371294;19;20718;-66
2022/09/21 11:46:04;;;;;;;3.70;0.80;;;15.20;1.00;;;;;;7369157;19;20006;-66
2022/09/21 11:48:52;;;;;;;1.50;0.68;;;15.00;1.00;;;;;;7367642;19;20010;-65
2022/09/21 11:51:39;;;;;;;1.92;0.60;;;15.50;1.00;;;;;;7368692;19;20030;-66
2022/09/21 11:54:43;;;;;;;3.00;0.57;;;15.80;1.00;;;;;;7368291;19;20014;-66
2022/09/21 11:57:19;;;;;;;2.00;0.80;;;15.70;1.00;;;;;;7362070;19;20006;-65
2022/09/21 12:00:04;;;;;;;1.20;0.77;;;15.50;1.00;;;;;;7368836;19;20433;-66
2022/09/21 12:02:39;;;;;;;;;;;15.90;1.00;;;;;;7372443;19;20364;-66
2022/09/21 12:05:21;;;;;;;2.60;0.60;;;15.90;1.00;;;;;;7387560;19;19914;-66
2022/09/21 12:08:05;;;;;;;2.55;0.73;;;16.30;1.00;;;;;;7359944;19;20406;-66
2022/09/21 12:10:52;;;;;;;0.90;0.57;;;17.00;1.00;;;;;;7368681;19;20118;-66
2022/09/21 12:13:32;;;;;;;2.88;0.57;;;16.70;1.00;;;;;;7366424;19;20563;-66
2022/09/21 12:16:07;;;;;;;1.00;0.40;;;16.90;1.00;;;;;;7365475;19;20011;-65
2022/09/21 12:18:46;;;;;;;1.00;0.60;;;16.80;1.00;;;;;;7368048;19;20126;-66
2022/09/21 12:21:22;;;;;;;2.00;0.93;;;16.60;1.00;;;;;;7366496;19;20078;-66
2022/09/21 12:23:56;;;;;;;1.48;0.50;;;16.80;1.00;;;;;;7367984;19;20010;-67
2022/09/21 12:26:31;;;;;;;2.97;0.68;;;16.90;1.00;;;;;;7361224;19;20014;-67
2022/09/21 12:29:03;;;;;;;1.65;0.55;;;17.20;1.00;;;;;;7391139;19;20014;-66
2022/09/21 12:31:41;;;;;;;1.20;0.70;;;17.00;1.00;;;;;;7368046;19;20003;-67
2022/09/21 12:34:17;;;;;;;1.50;0.40;;;16.90;1.00;;;;;;7366784;19;20010;-67
2022/09/21 12:37:04;;;;;;;0.75;0.40;;;16.80;1.00;;;;;;7359995;19;20014;-67
2022/09/21 12:39:40;;;;;;;0.85;0.50;;;17.30;1.00;;;;;;7369216;19;20514;-66
2022/09/21 12:42:23;;;;;;;1.65;0.80;;;17.20;1.00;;;;;;7366764;19;20026;-66
2022/09/21 12:44:57;;;;;;;1.30;0.90;;;16.90;1.00;;;;;;7367115;19;20133;-66
2022/09/21 12:47:34;;;;;;;3.45;0.82;;;16.70;1.00;;;;;;7357241;19;20014;-66
2022/09/21 12:50:09;;;;;;;1.75;0.63;;;16.70;1.00;;;;;;7388130;19;20369;-66
2022/09/21 12:52:42;;;;;;;1.42;0.60;;;16.80;1.00;;;;;;7366825;19;20352;-66
2022/09/21 12:55:29;;;;;;;1.45;0.70;;;16.80;1.00;;;;;;7366153;19;20011;-66
2022/09/21 12:58:09;;;;;;;1.52;0.60;;;17.10;1.00;;;;;;7360202;19;20021;-66
2022/09/21 13:00:51;;;;;;;1.60;0.60;;;17.30;1.00;;;;;;7367741;19;20479;-66
2022/09/21 13:03:27;;;;;;;1.33;0.60;;;17.20;1.00;;;;;;7367904;19;20018;-66
2022/09/21 13:06:27;;;;;;;1.98;0.73;;;17.50;1.00;;;;;;7362763;19;20015;-67
2022/09/21 13:09:03;;;;;;;0.82;0.60;;;17.30;1.00;;;;;;7368413;19;20034;-66
2022/09/21 13:11:53;;;;;;;0.65;0.55;;;17.30;1.00;;;;;;7368051;19;20004;-66
2022/09/21 13:14:24;;;;;;;1.08;0.60;;;17.30;1.00;;;;;;7365494;19;20022;-67
2022/09/21 13:17:01;;;;;;;2.10;0.60;;;17.20;1.00;;;;;;7379052;19;20010;-66
2022/09/21 13:19:33;;;;;;;0.80;0.50;;;16.90;1.00;;;;;;7367816;19;20246;-66
2022/09/21 13:22:18;;;;;;;2.15;0.90;;;16.90;1.00;;;;;;7365848;19;20011;-66
2022/09/21 13:25:02;;;;;;;3.72;0.75;;;17.00;1.00;;;;;;7364477;19;20046;-66
2022/09/21 13:28:03;;;;;;;1.20;0.68;;;17.20;1.00;;;;;;7361033;19;20010;-66
2022/09/21 13:30:37;;;;;;;1.20;0.57;;;17.20;1.00;;;;;;7367419;19;20478;-65
2022/09/21 13:33:34;;;;;;;1.92;0.80;;;16.90;1.00;;;;;;7366313;19;20021;-65